sensor_id;sensor_type;location;lat;lon;timestamp;P1;durP1;ratioP1;P2;durP2;ratioP2
76599;SDS011;65489;52.048;6.090;2023-03-23T00:01:51;1.33;;;0.60;;
76599;SDS011;65489;52.048;6.090;2023-03-23T00:04:17;1.13;;;0.60;;
76599;SDS011;65489;52.048;6.090;2023-03-23T00:06:43;1.65;;;0.60;;
76599;SDS011;65489;52.048;6.090;2023-03-23T00:09:10;1.38;;;0.60;;
76599;SDS011;65489;52.048;6.090;2023-03-23T00:11:37;1.48;;;0.60;;
76599;SDS011;65489;52.048;6.090;2023-03-23T00:14:04;0.82;;;0.50;;
76599;SDS011;65489;52.048;6.090;2023-03-23T00:16:30;1.10;;;0.50;;
76599;SDS011;65489;52.048;6.090;2023-03-23T00:18:59;2.38;;;0.70;;
76599;SDS011;65489;52.048;6.090;2023-03-23T00:21:27;0.90;;;0.70;;
76599;SDS011;65489;52.048;6.090;2023-03-23T00:26:32;1.25;;;0.68;;
76599;SDS011;65489;52.048;6.090;2023-03-23T00:29:05;0.95;;;0.50;;
76599;SDS011;65489;52.048;6.090;2023-03-23T00:31:32;1.67;;;0.63;;
76599;SDS011;65489;52.048;6.090;2023-03-23T00:34:01;1.02;;;0.60;;
76599;SDS011;65489;52.048;6.090;2023-03-23T00:36:29;1.17;;;0.70;;
76599;SDS011;65489;52.048;6.090;2023-03-23T00:38:56;1.00;;;0.70;;
76599;SDS011;65489;52.048;6.090;2023-03-23T00:41:26;1.60;;;0.65;;
76599;SDS011;65489;52.048;6.090;2023-03-23T00:43:56;0.93;;;0.50;;
76599;SDS011;65489;52.048;6.090;2023-03-23T00:46:23;1.33;;;0.60;;
76599;SDS011;65489;52.048;6.090;2023-03-23T00:48:49;0.93;;;0.55;;
76599;SDS011;65489;52.048;6.090;2023-03-23T00:51:16;1.67;;;0.73;;
76599;SDS011;65489;52.048;6.090;2023-03-23T00:53:44;1.02;;;0.50;;
76599;SDS011;65489;52.048;6.090;2023-03-23T00:56:10;1.40;;;0.70;;
76599;SDS011;65489;52.048;6.090;2023-03-23T00:58:36;1.35;;;0.70;;
76599;SDS011;65489;52.048;6.090;2023-03-23T01:01:02;1.77;;;0.70;;
76599;SDS011;65489;52.048;6.090;2023-03-23T01:03:27;1.20;;;0.60;;
76599;SDS011;65489;52.048;6.090;2023-03-23T01:05:57;0.60;;;0.40;;
76599;SDS011;65489;52.048;6.090;2023-03-23T01:08:23;0.93;;;0.52;;
76599;SDS011;65489;52.048;6.090;2023-03-23T01:10:50;1.00;;;0.57;;
76599;SDS011;65489;52.048;6.090;2023-03-23T01:13:15;0.95;;;0.63;;
76599;SDS011;65489;52.048;6.090;2023-03-23T01:15:41;1.23;;;0.60;;
76599;SDS011;65489;52.048;6.090;2023-03-23T01:18:07;1.00;;;0.50;;
76599;SDS011;65489;52.048;6.090;2023-03-23T01:20:33;2.00;;;0.68;;
76599;SDS011;65489;52.048;6.090;2023-03-23T01:23:00;0.90;;;0.60;;
76599;SDS011;65489;52.048;6.090;2023-03-23T01:25:27;0.93;;;0.50;;
76599;SDS011;65489;52.048;6.090;2023-03-23T01:27:54;0.77;;;0.52;;
76599;SDS011;65489;52.048;6.090;2023-03-23T01:30:20;0.77;;;0.40;;
76599;SDS011;65489;52.048;6.090;2023-03-23T01:32:46;0.70;;;0.40;;
76599;SDS011;65489;52.048;6.090;2023-03-23T01:35:12;0.93;;;0.40;;
76599;SDS011;65489;52.048;6.090;2023-03-23T01:37:38;1.10;;;0.55;;
76599;SDS011;65489;52.048;6.090;2023-03-23T01:40:04;0.93;;;0.50;;
76599;SDS011;65489;52.048;6.090;2023-03-23T01:42:32;1.23;;;0.50;;
76599;SDS011;65489;52.048;6.090;2023-03-23T01:47:45;1.10;;;0.50;;
76599;SDS011;65489;52.048;6.090;2023-03-23T01:50:11;1.48;;;0.50;;
76599;SDS011;65489;52.048;6.090;2023-03-23T01:52:37;0.90;;;0.40;;
76599;SDS011;65489;52.048;6.090;2023-03-23T01:55:04;0.80;;;0.40;;
76599;SDS011;65489;52.048;6.090;2023-03-23T01:57:30;2.20;;;0.60;;
76599;SDS011;65489;52.048;6.090;2023-03-23T01:59:58;0.80;;;0.50;;
76599;SDS011;65489;52.048;6.090;2023-03-23T02:02:50;0.80;;;0.43;;
76599;SDS011;65489;52.048;6.090;2023-03-23T02:05:38;0.65;;;0.47;;
76599;SDS011;65489;52.048;6.090;2023-03-23T02:08:18;0.95;;;0.50;;
76599;SDS011;65489;52.048;6.090;2023-03-23T02:10:45;1.05;;;0.40;;
76599;SDS011;65489;52.048;6.090;2023-03-23T02:13:12;0.70;;;0.45;;
76599;SDS011;65489;52.048;6.090;2023-03-23T02:15:48;1.23;;;0.50;;
76599;SDS011;65489;52.048;6.090;2023-03-23T02:18:26;1.05;;;0.30;;
76599;SDS011;65489;52.048;6.090;2023-03-23T02:21:06;0.80;;;0.50;;
76599;SDS011;65489;52.048;6.090;2023-03-23T02:23:41;1.10;;;0.50;;
76599;SDS011;65489;52.048;6.090;2023-03-23T02:34:48;1.10;;;0.50;;
76599;SDS011;65489;52.048;6.090;2023-03-23T02:37:21;1.17;;;0.40;;
76599;SDS011;65489;52.048;6.090;2023-03-23T02:39:51;1.40;;;0.50;;
76599;SDS011;65489;52.048;6.090;2023-03-23T02:42:20;0.67;;;0.37;;
76599;SDS011;65489;52.048;6.090;2023-03-23T02:44:50;2.17;;;0.47;;
76599;SDS011;65489;52.048;6.090;2023-03-23T02:47:19;0.75;;;0.43;;
76599;SDS011;65489;52.048;6.090;2023-03-23T02:49:48;1.13;;;0.55;;
76599;SDS011;65489;52.048;6.090;2023-03-23T02:52:17;1.00;;;0.50;;
76599;SDS011;65489;52.048;6.090;2023-03-23T02:54:47;0.60;;;0.40;;
76599;SDS011;65489;52.048;6.090;2023-03-23T02:57:14;0.93;;;0.40;;
76599;SDS011;65489;52.048;6.090;2023-03-23T02:59:42;1.45;;;0.60;;
76599;SDS011;65489;52.048;6.090;2023-03-23T03:02:17;0.45;;;0.30;;
76599;SDS011;65489;52.048;6.090;2023-03-23T03:04:46;0.90;;;0.50;;
76599;SDS011;65489;52.048;6.090;2023-03-23T03:07:23;1.05;;;0.60;;
76599;SDS011;65489;52.048;6.090;2023-03-23T03:10:19;1.00;;;0.50;;
76599;SDS011;65489;52.048;6.090;2023-03-23T03:15:44;0.57;;;0.40;;
76599;SDS011;65489;52.048;6.090;2023-03-23T03:18:16;0.43;;;0.30;;
76599;SDS011;65489;52.048;6.090;2023-03-23T03:20:55;0.82;;;0.50;;
76599;SDS011;65489;52.048;6.090;2023-03-23T03:23:27;0.95;;;0.47;;
76599;SDS011;65489;52.048;6.090;2023-03-23T03:25:56;1.00;;;0.57;;
76599;SDS011;65489;52.048;6.090;2023-03-23T03:28:33;0.60;;;0.35;;
76599;SDS011;65489;52.048;6.090;2023-03-23T03:31:00;0.70;;;0.40;;
76599;SDS011;65489;52.048;6.090;2023-03-23T03:33:27;0.93;;;0.43;;
76599;SDS011;65489;52.048;6.090;2023-03-23T03:35:57;0.32;;;0.30;;
76599;SDS011;65489;52.048;6.090;2023-03-23T03:38:25;2.10;;;0.40;;
76599;SDS011;65489;52.048;6.090;2023-03-23T03:40:54;0.70;;;0.45;;
76599;SDS011;65489;52.048;6.090;2023-03-23T03:43:22;0.50;;;0.40;;
76599;SDS011;65489;52.048;6.090;2023-03-23T03:45:48;0.40;;;0.40;;
76599;SDS011;65489;52.048;6.090;2023-03-23T03:48:13;0.47;;;0.30;;
76599;SDS011;65489;52.048;6.090;2023-03-23T03:50:39;0.57;;;0.40;;
76599;SDS011;65489;52.048;6.090;2023-03-23T03:53:05;0.50;;;0.35;;
76599;SDS011;65489;52.048;6.090;2023-03-23T03:55:31;0.70;;;0.50;;
76599;SDS011;65489;52.048;6.090;2023-03-23T03:58:02;0.82;;;0.40;;
76599;SDS011;65489;52.048;6.090;2023-03-23T04:00:49;0.52;;;0.40;;
76599;SDS011;65489;52.048;6.090;2023-03-23T04:03:19;1.30;;;0.40;;
76599;SDS011;65489;52.048;6.090;2023-03-23T04:06:01;1.55;;;0.40;;
76599;SDS011;65489;52.048;6.090;2023-03-23T04:08:27;0.40;;;0.30;;
76599;SDS011;65489;52.048;6.090;2023-03-23T04:10:53;0.65;;;0.47;;
76599;SDS011;65489;52.048;6.090;2023-03-23T04:13:20;0.98;;;0.45;;
76599;SDS011;65489;52.048;6.090;2023-03-23T04:15:59;0.50;;;0.30;;
76599;SDS011;65489;52.048;6.090;2023-03-23T04:18:26;0.45;;;0.30;;
76599;SDS011;65489;52.048;6.090;2023-03-23T04:20:52;1.20;;;0.38;;
76599;SDS011;65489;52.048;6.090;2023-03-23T04:23:20;0.52;;;0.40;;
76599;SDS011;65489;52.048;6.090;2023-03-23T04:25:51;0.63;;;0.40;;
76599;SDS011;65489;52.048;6.090;2023-03-23T04:28:18;0.80;;;0.40;;
76599;SDS011;65489;52.048;6.090;2023-03-23T04:31:07;0.50;;;0.40;;
76599;SDS011;65489;52.048;6.090;2023-03-23T04:33:34;2.17;;;0.45;;
76599;SDS011;65489;52.048;6.090;2023-03-23T04:35:59;0.60;;;0.40;;
76599;SDS011;65489;52.048;6.090;2023-03-23T04:38:34;0.40;;;0.30;;
76599;SDS011;65489;52.048;6.090;2023-03-23T04:41:08;0.73;;;0.30;;
76599;SDS011;65489;52.048;6.090;2023-03-23T04:44:00;0.63;;;0.40;;
76599;SDS011;65489;52.048;6.090;2023-03-23T04:46:34;0.50;;;0.30;;
76599;SDS011;65489;52.048;6.090;2023-03-23T04:49:05;0.60;;;0.50;;
76599;SDS011;65489;52.048;6.090;2023-03-23T04:51:35;2.15;;;0.35;;
76599;SDS011;65489;52.048;6.090;2023-03-23T04:54:12;0.80;;;0.30;;
76599;SDS011;65489;52.048;6.090;2023-03-23T04:56:40;0.68;;;0.40;;
76599;SDS011;65489;52.048;6.090;2023-03-23T04:59:10;0.75;;;0.40;;
76599;SDS011;65489;52.048;6.090;2023-03-23T05:01:46;0.47;;;0.30;;
76599;SDS011;65489;52.048;6.090;2023-03-23T05:04:16;0.95;;;0.40;;
76599;SDS011;65489;52.048;6.090;2023-03-23T05:06:46;0.40;;;0.30;;
76599;SDS011;65489;52.048;6.090;2023-03-23T05:09:18;0.45;;;0.30;;
76599;SDS011;65489;52.048;6.090;2023-03-23T05:11:46;0.95;;;0.50;;
76599;SDS011;65489;52.048;6.090;2023-03-23T05:14:11;0.90;;;0.32;;
76599;SDS011;65489;52.048;6.090;2023-03-23T05:16:38;0.52;;;0.32;;
76599;SDS011;65489;52.048;6.090;2023-03-23T05:19:06;1.10;;;0.30;;
76599;SDS011;65489;52.048;6.090;2023-03-23T05:21:33;0.40;;;0.40;;
76599;SDS011;65489;52.048;6.090;2023-03-23T05:23:59;0.52;;;0.25;;
76599;SDS011;65489;52.048;6.090;2023-03-23T05:26:26;0.25;;;0.20;;
76599;SDS011;65489;52.048;6.090;2023-03-23T05:29:03;1.20;;;0.40;;
76599;SDS011;65489;52.048;6.090;2023-03-23T05:34:07;0.70;;;0.40;;
76599;SDS011;65489;52.048;6.090;2023-03-23T05:36:39;0.50;;;0.30;;
76599;SDS011;65489;52.048;6.090;2023-03-23T05:39:10;1.40;;;0.40;;
76599;SDS011;65489;52.048;6.090;2023-03-23T05:41:53;0.50;;;0.30;;
76599;SDS011;65489;52.048;6.090;2023-03-23T05:44:19;0.40;;;0.35;;
76599;SDS011;65489;52.048;6.090;2023-03-23T05:46:48;0.82;;;0.20;;
76599;SDS011;65489;52.048;6.090;2023-03-23T05:49:15;1.10;;;0.40;;
76599;SDS011;65489;52.048;6.090;2023-03-23T05:51:42;2.40;;;0.35;;
76599;SDS011;65489;52.048;6.090;2023-03-23T05:54:10;0.57;;;0.30;;
76599;SDS011;65489;52.048;6.090;2023-03-23T05:56:36;0.50;;;0.40;;
76599;SDS011;65489;52.048;6.090;2023-03-23T05:59:25;0.45;;;0.30;;
76599;SDS011;65489;52.048;6.090;2023-03-23T06:01:53;0.57;;;0.40;;
76599;SDS011;65489;52.048;6.090;2023-03-23T06:04:20;0.40;;;0.30;;
76599;SDS011;65489;52.048;6.090;2023-03-23T06:07:03;0.50;;;0.30;;
76599;SDS011;65489;52.048;6.090;2023-03-23T06:12:15;0.60;;;0.40;;
76599;SDS011;65489;52.048;6.090;2023-03-23T06:14:52;1.45;;;0.38;;
76599;SDS011;65489;52.048;6.090;2023-03-23T06:17:24;0.80;;;0.30;;
76599;SDS011;65489;52.048;6.090;2023-03-23T06:19:52;1.50;;;0.30;;
76599;SDS011;65489;52.048;6.090;2023-03-23T06:22:18;0.60;;;0.30;;
76599;SDS011;65489;52.048;6.090;2023-03-23T06:25:05;0.77;;;0.40;;
76599;SDS011;65489;52.048;6.090;2023-03-23T06:27:37;0.70;;;0.38;;
76599;SDS011;65489;52.048;6.090;2023-03-23T06:30:03;1.42;;;0.30;;
76599;SDS011;65489;52.048;6.090;2023-03-23T06:32:30;0.70;;;0.30;;
76599;SDS011;65489;52.048;6.090;2023-03-23T06:34:57;0.70;;;0.25;;
76599;SDS011;65489;52.048;6.090;2023-03-23T06:37:43;0.70;;;0.32;;
76599;SDS011;65489;52.048;6.090;2023-03-23T06:40:17;1.80;;;0.40;;
76599;SDS011;65489;52.048;6.090;2023-03-23T06:42:49;1.33;;;0.47;;
76599;SDS011;65489;52.048;6.090;2023-03-23T06:45:44;0.50;;;0.35;;
76599;SDS011;65489;52.048;6.090;2023-03-23T06:48:35;0.32;;;0.20;;
76599;SDS011;65489;52.048;6.090;2023-03-23T06:51:01;0.30;;;0.30;;
76599;SDS011;65489;52.048;6.090;2023-03-23T06:53:28;1.35;;;0.30;;
76599;SDS011;65489;52.048;6.090;2023-03-23T06:55:56;0.60;;;0.40;;
76599;SDS011;65489;52.048;6.090;2023-03-23T06:58:22;1.25;;;0.30;;
76599;SDS011;65489;52.048;6.090;2023-03-23T07:00:52;1.35;;;0.50;;
76599;SDS011;65489;52.048;6.090;2023-03-23T07:03:32;1.65;;;0.40;;
76599;SDS011;65489;52.048;6.090;2023-03-23T07:05:59;0.80;;;0.43;;
76599;SDS011;65489;52.048;6.090;2023-03-23T07:08:28;1.63;;;0.35;;
76599;SDS011;65489;52.048;6.090;2023-03-23T07:10:54;0.65;;;0.40;;
76599;SDS011;65489;52.048;6.090;2023-03-23T07:13:24;0.30;;;0.20;;
76599;SDS011;65489;52.048;6.090;2023-03-23T07:15:54;1.00;;;0.40;;
76599;SDS011;65489;52.048;6.090;2023-03-23T07:18:20;0.43;;;0.35;;
76599;SDS011;65489;52.048;6.090;2023-03-23T07:20:48;0.45;;;0.40;;
76599;SDS011;65489;52.048;6.090;2023-03-23T07:23:15;1.13;;;0.43;;
76599;SDS011;65489;52.048;6.090;2023-03-23T07:25:46;0.55;;;0.30;;
76599;SDS011;65489;52.048;6.090;2023-03-23T07:28:17;1.00;;;0.40;;
76599;SDS011;65489;52.048;6.090;2023-03-23T07:30:44;0.93;;;0.30;;
76599;SDS011;65489;52.048;6.090;2023-03-23T07:33:10;0.93;;;0.40;;
76599;SDS011;65489;52.048;6.090;2023-03-23T07:35:36;1.38;;;0.40;;
76599;SDS011;65489;52.048;6.090;2023-03-23T07:38:05;0.57;;;0.30;;
76599;SDS011;65489;52.048;6.090;2023-03-23T07:40:32;1.38;;;0.38;;
76599;SDS011;65489;52.048;6.090;2023-03-23T07:43:03;0.60;;;0.30;;
76599;SDS011;65489;52.048;6.090;2023-03-23T07:45:51;0.60;;;0.30;;
76599;SDS011;65489;52.048;6.090;2023-03-23T07:48:18;1.67;;;0.40;;
76599;SDS011;65489;52.048;6.090;2023-03-23T07:50:43;1.08;;;0.45;;
76599;SDS011;65489;52.048;6.090;2023-03-23T07:53:11;0.95;;;0.40;;
76599;SDS011;65489;52.048;6.090;2023-03-23T07:55:39;2.15;;;0.30;;
76599;SDS011;65489;52.048;6.090;2023-03-23T07:58:23;0.70;;;0.40;;
76599;SDS011;65489;52.048;6.090;2023-03-23T08:00:53;0.57;;;0.30;;
76599;SDS011;65489;52.048;6.090;2023-03-23T08:03:22;0.98;;;0.40;;
76599;SDS011;65489;52.048;6.090;2023-03-23T08:05:56;0.80;;;0.40;;
76599;SDS011;65489;52.048;6.090;2023-03-23T08:11:40;0.40;;;0.22;;
76599;SDS011;65489;52.048;6.090;2023-03-23T08:14:26;1.40;;;0.30;;
76599;SDS011;65489;52.048;6.090;2023-03-23T08:17:16;2.05;;;0.30;;
76599;SDS011;65489;52.048;6.090;2023-03-23T08:20:07;0.30;;;0.25;;
76599;SDS011;65489;52.048;6.090;2023-03-23T08:25:37;1.33;;;0.30;;
76599;SDS011;65489;52.048;6.090;2023-03-23T08:28:21;1.65;;;0.50;;
76599;SDS011;65489;52.048;6.090;2023-03-23T08:31:06;0.57;;;0.30;;
76599;SDS011;65489;52.048;6.090;2023-03-23T08:33:56;1.50;;;0.50;;
76599;SDS011;65489;52.048;6.090;2023-03-23T08:36:48;0.73;;;0.45;;
76599;SDS011;65489;52.048;6.090;2023-03-23T08:39:25;1.45;;;0.50;;
76599;SDS011;65489;52.048;6.090;2023-03-23T08:42:09;1.30;;;0.40;;
76599;SDS011;65489;52.048;6.090;2023-03-23T08:44:58;1.48;;;0.52;;
76599;SDS011;65489;52.048;6.090;2023-03-23T08:47:49;1.88;;;0.60;;
76599;SDS011;65489;52.048;6.090;2023-03-23T08:50:26;1.30;;;0.60;;
76599;SDS011;65489;52.048;6.090;2023-03-23T08:53:01;1.70;;;0.63;;
76599;SDS011;65489;52.048;6.090;2023-03-23T08:55:56;1.27;;;0.60;;
76599;SDS011;65489;52.048;6.090;2023-03-23T08:59:02;2.00;;;0.68;;
76599;SDS011;65489;52.048;6.090;2023-03-23T09:01:54;2.00;;;0.50;;
76599;SDS011;65489;52.048;6.090;2023-03-23T09:04:25;3.40;;;0.90;;
76599;SDS011;65489;52.048;6.090;2023-03-23T09:07:13;3.55;;;0.75;;
76599;SDS011;65489;52.048;6.090;2023-03-23T09:09:40;2.45;;;0.80;;
76599;SDS011;65489;52.048;6.090;2023-03-23T09:12:06;2.53;;;0.73;;
76599;SDS011;65489;52.048;6.090;2023-03-23T09:14:33;2.63;;;0.85;;
76599;SDS011;65489;52.048;6.090;2023-03-23T09:17:00;3.72;;;0.98;;
76599;SDS011;65489;52.048;6.090;2023-03-23T09:19:25;3.10;;;0.80;;
76599;SDS011;65489;52.048;6.090;2023-03-23T09:21:51;6.10;;;0.98;;
76599;SDS011;65489;52.048;6.090;2023-03-23T09:24:17;2.83;;;0.85;;
76599;SDS011;65489;52.048;6.090;2023-03-23T09:26:44;3.67;;;1.20;;
76599;SDS011;65489;52.048;6.090;2023-03-23T09:29:10;6.97;;;1.20;;
76599;SDS011;65489;52.048;6.090;2023-03-23T09:31:37;3.80;;;1.10;;
76599;SDS011;65489;52.048;6.090;2023-03-23T09:34:05;3.97;;;1.00;;
76599;SDS011;65489;52.048;6.090;2023-03-23T09:36:35;3.58;;;1.00;;
76599;SDS011;65489;52.048;6.090;2023-03-23T09:39:01;2.38;;;0.85;;
76599;SDS011;65489;52.048;6.090;2023-03-23T09:41:44;5.10;;;1.27;;
76599;SDS011;65489;52.048;6.090;2023-03-23T09:46:59;5.63;;;1.10;;
76599;SDS011;65489;52.048;6.090;2023-03-23T09:49:53;2.72;;;1.10;;
76599;SDS011;65489;52.048;6.090;2023-03-23T09:52:22;4.47;;;1.00;;
76599;SDS011;65489;52.048;6.090;2023-03-23T09:55:02;3.17;;;1.15;;
76599;SDS011;65489;52.048;6.090;2023-03-23T09:57:32;3.38;;;0.98;;
76599;SDS011;65489;52.048;6.090;2023-03-23T10:00:10;3.55;;;1.02;;
76599;SDS011;65489;52.048;6.090;2023-03-23T10:02:49;3.35;;;1.10;;
76599;SDS011;65489;52.048;6.090;2023-03-23T10:07:57;2.70;;;1.00;;
76599;SDS011;65489;52.048;6.090;2023-03-23T10:10:29;3.35;;;1.23;;
76599;SDS011;65489;52.048;6.090;2023-03-23T10:16:01;4.43;;;1.02;;
76599;SDS011;65489;52.048;6.090;2023-03-23T10:18:47;4.60;;;1.35;;
76599;SDS011;65489;52.048;6.090;2023-03-23T10:21:23;2.38;;;1.00;;
76599;SDS011;65489;52.048;6.090;2023-03-23T10:23:53;3.42;;;0.93;;
76599;SDS011;65489;52.048;6.090;2023-03-23T10:28:52;2.77;;;1.00;;
76599;SDS011;65489;52.048;6.090;2023-03-23T10:31:23;4.72;;;1.27;;
76599;SDS011;65489;52.048;6.090;2023-03-23T10:33:52;2.35;;;1.00;;
76599;SDS011;65489;52.048;6.090;2023-03-23T10:37:21;2.65;;;1.25;;
76599;SDS011;65489;52.048;6.090;2023-03-23T10:39:21;2.53;;;0.98;;
76599;SDS011;65489;52.048;6.090;2023-03-23T10:41:48;6.40;;;1.17;;
76599;SDS011;65489;52.048;6.090;2023-03-23T10:49:22;4.07;;;1.10;;
76599;SDS011;65489;52.048;6.090;2023-03-23T10:52:02;3.45;;;1.20;;
76599;SDS011;65489;52.048;6.090;2023-03-23T10:54:32;4.38;;;1.15;;
76599;SDS011;65489;52.048;6.090;2023-03-23T10:57:12;2.50;;;0.70;;
76599;SDS011;65489;52.048;6.090;2023-03-23T10:59:42;4.25;;;1.00;;
76599;SDS011;65489;52.048;6.090;2023-03-23T11:02:14;4.05;;;1.13;;
76599;SDS011;65489;52.048;6.090;2023-03-23T11:04:45;4.00;;;1.00;;
76599;SDS011;65489;52.048;6.090;2023-03-23T11:07:21;4.30;;;1.05;;
76599;SDS011;65489;52.048;6.090;2023-03-23T11:09:55;3.03;;;1.00;;
76599;SDS011;65489;52.048;6.090;2023-03-23T11:12:23;5.45;;;1.17;;
76599;SDS011;65489;52.048;6.090;2023-03-23T11:14:49;3.70;;;1.00;;
76599;SDS011;65489;52.048;6.090;2023-03-23T11:17:27;3.22;;;1.10;;
76599;SDS011;65489;52.048;6.090;2023-03-23T11:19:53;2.37;;;0.83;;
76599;SDS011;65489;52.048;6.090;2023-03-23T11:24:54;1.42;;;0.77;;
76599;SDS011;65489;52.048;6.090;2023-03-23T11:27:21;2.60;;;0.90;;
76599;SDS011;65489;52.048;6.090;2023-03-23T11:29:55;3.35;;;0.93;;
76599;SDS011;65489;52.048;6.090;2023-03-23T11:32:27;2.97;;;0.90;;
76599;SDS011;65489;52.048;6.090;2023-03-23T11:34:58;2.35;;;0.90;;
76599;SDS011;65489;52.048;6.090;2023-03-23T11:39:55;2.33;;;0.75;;
76599;SDS011;65489;52.048;6.090;2023-03-23T11:42:25;3.47;;;0.90;;
76599;SDS011;65489;52.048;6.090;2023-03-23T11:44:53;3.22;;;0.88;;
76599;SDS011;65489;52.048;6.090;2023-03-23T11:47:22;3.60;;;1.00;;
76599;SDS011;65489;52.048;6.090;2023-03-23T11:52:40;1.90;;;0.80;;
76599;SDS011;65489;52.048;6.090;2023-03-23T11:55:23;3.13;;;0.80;;
76599;SDS011;65489;52.048;6.090;2023-03-23T11:57:49;2.72;;;0.85;;
76599;SDS011;65489;52.048;6.090;2023-03-23T12:00:19;3.90;;;0.80;;
76599;SDS011;65489;52.048;6.090;2023-03-23T12:02:52;3.15;;;1.27;;
76599;SDS011;65489;52.048;6.090;2023-03-23T12:10:59;2.78;;;0.80;;
76599;SDS011;65489;52.048;6.090;2023-03-23T12:27:33;2.63;;;0.90;;
76599;SDS011;65489;52.048;6.090;2023-03-23T12:35:34;3.03;;;0.80;;
76599;SDS011;65489;52.048;6.090;2023-03-23T12:40:40;2.15;;;0.80;;
76599;SDS011;65489;52.048;6.090;2023-03-23T12:43:20;1.20;;;0.47;;
76599;SDS011;65489;52.048;6.090;2023-03-23T12:48:50;1.55;;;0.77;;
76599;SDS011;65489;52.048;6.090;2023-03-23T12:51:37;5.45;;;0.95;;
76599;SDS011;65489;52.048;6.090;2023-03-23T12:56:41;2.40;;;0.82;;
76599;SDS011;65489;52.048;6.090;2023-03-23T13:02:22;2.40;;;0.73;;
76599;SDS011;65489;52.048;6.090;2023-03-23T13:11:22;2.65;;;0.77;;
76599;SDS011;65489;52.048;6.090;2023-03-23T13:14:45;2.30;;;0.80;;
76599;SDS011;65489;52.048;6.090;2023-03-23T13:17:25;1.50;;;0.83;;
76599;SDS011;65489;52.048;6.090;2023-03-23T13:19:59;2.17;;;0.77;;
76599;SDS011;65489;52.048;6.090;2023-03-23T13:22:35;1.55;;;0.52;;
76599;SDS011;65489;52.048;6.090;2023-03-23T13:25:06;2.15;;;0.60;;
76599;SDS011;65489;52.048;6.090;2023-03-23T13:27:36;2.05;;;0.90;;
76599;SDS011;65489;52.048;6.090;2023-03-23T13:30:02;2.33;;;0.73;;
76599;SDS011;65489;52.048;6.090;2023-03-23T13:35:05;2.33;;;0.80;;
76599;SDS011;65489;52.048;6.090;2023-03-23T13:37:40;2.53;;;0.68;;
76599;SDS011;65489;52.048;6.090;2023-03-23T13:42:46;1.95;;;0.82;;
76599;SDS011;65489;52.048;6.090;2023-03-23T13:48:03;2.25;;;0.60;;
76599;SDS011;65489;52.048;6.090;2023-03-23T13:53:23;3.90;;;0.70;;
76599;SDS011;65489;52.048;6.090;2023-03-23T13:59:07;2.05;;;0.60;;
76599;SDS011;65489;52.048;6.090;2023-03-23T14:01:54;2.28;;;0.47;;
76599;SDS011;65489;52.048;6.090;2023-03-23T14:04:21;2.17;;;0.60;;
76599;SDS011;65489;52.048;6.090;2023-03-23T14:06:48;1.55;;;0.60;;
76599;SDS011;65489;52.048;6.090;2023-03-23T14:09:31;1.63;;;0.60;;
76599;SDS011;65489;52.048;6.090;2023-03-23T14:12:03;0.88;;;0.50;;
76599;SDS011;65489;52.048;6.090;2023-03-23T14:14:34;1.33;;;0.60;;
76599;SDS011;65489;52.048;6.090;2023-03-23T14:17:06;1.83;;;0.70;;
76599;SDS011;65489;52.048;6.090;2023-03-23T14:19:37;2.55;;;0.60;;
76599;SDS011;65489;52.048;6.090;2023-03-23T14:22:03;2.22;;;0.60;;
76599;SDS011;65489;52.048;6.090;2023-03-23T14:24:30;1.60;;;0.50;;
76599;SDS011;65489;52.048;6.090;2023-03-23T14:27:10;1.17;;;0.57;;
76599;SDS011;65489;52.048;6.090;2023-03-23T14:29:38;1.90;;;0.60;;
76599;SDS011;65489;52.048;6.090;2023-03-23T14:32:05;1.95;;;0.80;;
76599;SDS011;65489;52.048;6.090;2023-03-23T14:34:32;1.02;;;0.55;;
76599;SDS011;65489;52.048;6.090;2023-03-23T14:36:58;1.63;;;0.70;;
76599;SDS011;65489;52.048;6.090;2023-03-23T14:41:50;1.48;;;0.77;;
76599;SDS011;65489;52.048;6.090;2023-03-23T14:44:18;1.00;;;0.50;;
76599;SDS011;65489;52.048;6.090;2023-03-23T14:46:49;1.50;;;0.73;;
76599;SDS011;65489;52.048;6.090;2023-03-23T14:49:15;0.90;;;0.50;;
76599;SDS011;65489;52.048;6.090;2023-03-23T14:51:49;1.27;;;0.60;;
76599;SDS011;65489;52.048;6.090;2023-03-23T14:54:18;1.17;;;0.50;;
76599;SDS011;65489;52.048;6.090;2023-03-23T14:56:47;1.77;;;0.60;;
76599;SDS011;65489;52.048;6.090;2023-03-23T14:59:12;1.45;;;0.52;;
76599;SDS011;65489;52.048;6.090;2023-03-23T15:01:39;1.75;;;0.70;;
76599;SDS011;65489;52.048;6.090;2023-03-23T15:04:08;3.22;;;0.60;;
76599;SDS011;65489;52.048;6.090;2023-03-23T15:06:36;2.35;;;0.70;;
76599;SDS011;65489;52.048;6.090;2023-03-23T15:09:09;1.75;;;0.52;;
76599;SDS011;65489;52.048;6.090;2023-03-23T15:11:38;1.27;;;0.68;;
76599;SDS011;65489;52.048;6.090;2023-03-23T15:14:15;1.70;;;0.63;;
76599;SDS011;65489;52.048;6.090;2023-03-23T15:16:48;0.90;;;0.57;;
76599;SDS011;65489;52.048;6.090;2023-03-23T15:19:19;1.30;;;0.47;;
76599;SDS011;65489;52.048;6.090;2023-03-23T15:24:34;1.58;;;0.60;;
76599;SDS011;65489;52.048;6.090;2023-03-23T15:29:31;1.08;;;0.40;;
76599;SDS011;65489;52.048;6.090;2023-03-23T15:31:56;1.85;;;0.60;;
76599;SDS011;65489;52.048;6.090;2023-03-23T15:37:04;2.20;;;0.55;;
76599;SDS011;65489;52.048;6.090;2023-03-23T15:39:40;1.27;;;0.40;;
76599;SDS011;65489;52.048;6.090;2023-03-23T15:42:05;1.25;;;0.50;;
76599;SDS011;65489;52.048;6.090;2023-03-23T15:44:32;0.98;;;0.50;;
76599;SDS011;65489;52.048;6.090;2023-03-23T15:47:17;2.28;;;0.63;;
76599;SDS011;65489;52.048;6.090;2023-03-23T15:49:47;1.38;;;0.50;;
76599;SDS011;65489;52.048;6.090;2023-03-23T15:52:24;1.52;;;0.60;;
76599;SDS011;65489;52.048;6.090;2023-03-23T15:54:50;0.73;;;0.45;;
76599;SDS011;65489;52.048;6.090;2023-03-23T15:57:16;1.33;;;0.40;;
76599;SDS011;65489;52.048;6.090;2023-03-23T15:59:41;1.95;;;0.50;;
76599;SDS011;65489;52.048;6.090;2023-03-23T16:02:10;1.20;;;0.40;;
76599;SDS011;65489;52.048;6.090;2023-03-23T16:04:41;1.23;;;0.50;;
76599;SDS011;65489;52.048;6.090;2023-03-23T16:07:07;1.35;;;0.55;;
76599;SDS011;65489;52.048;6.090;2023-03-23T16:09:32;0.90;;;0.40;;
76599;SDS011;65489;52.048;6.090;2023-03-23T16:11:58;1.60;;;0.50;;
76599;SDS011;65489;52.048;6.090;2023-03-23T16:14:23;1.35;;;0.50;;
76599;SDS011;65489;52.048;6.090;2023-03-23T16:16:49;1.67;;;0.60;;
76599;SDS011;65489;52.048;6.090;2023-03-23T16:19:17;1.73;;;0.55;;
76599;SDS011;65489;52.048;6.090;2023-03-23T16:21:44;1.38;;;0.50;;
76599;SDS011;65489;52.048;6.090;2023-03-23T16:24:09;1.13;;;0.50;;
76599;SDS011;65489;52.048;6.090;2023-03-23T16:26:35;0.82;;;0.40;;
76599;SDS011;65489;52.048;6.090;2023-03-23T16:29:01;1.17;;;0.50;;
76599;SDS011;65489;52.048;6.090;2023-03-23T16:31:27;1.00;;;0.52;;
76599;SDS011;65489;52.048;6.090;2023-03-23T16:33:53;0.85;;;0.50;;
76599;SDS011;65489;52.048;6.090;2023-03-23T16:36:19;1.00;;;0.50;;
76599;SDS011;65489;52.048;6.090;2023-03-23T16:38:44;1.15;;;0.50;;
76599;SDS011;65489;52.048;6.090;2023-03-23T16:41:10;1.63;;;0.55;;
76599;SDS011;65489;52.048;6.090;2023-03-23T16:43:35;1.17;;;0.60;;
76599;SDS011;65489;52.048;6.090;2023-03-23T16:46:01;0.82;;;0.43;;
76599;SDS011;65489;52.048;6.090;2023-03-23T16:48:26;1.00;;;0.63;;
76599;SDS011;65489;52.048;6.090;2023-03-23T16:50:52;1.00;;;0.50;;
76599;SDS011;65489;52.048;6.090;2023-03-23T16:55:49;1.25;;;0.40;;
76599;SDS011;65489;52.048;6.090;2023-03-23T16:58:15;1.10;;;0.40;;
76599;SDS011;65489;52.048;6.090;2023-03-23T17:00:41;0.82;;;0.47;;
76599;SDS011;65489;52.048;6.090;2023-03-23T17:03:08;1.60;;;0.60;;
76599;SDS011;65489;52.048;6.090;2023-03-23T17:05:34;1.30;;;0.50;;
76599;SDS011;65489;52.048;6.090;2023-03-23T17:08:01;2.40;;;0.70;;
76599;SDS011;65489;52.048;6.090;2023-03-23T17:12:55;1.38;;;0.50;;
76599;SDS011;65489;52.048;6.090;2023-03-23T17:15:21;0.95;;;0.35;;
76599;SDS011;65489;52.048;6.090;2023-03-23T17:17:48;1.27;;;0.50;;